AirNav   Duncan Aviation - Near you to keep you flying
 
 1745 users online  

IA32 Kelley Airport
Crescent, Iowa, USA

GOING TO CRESCENT?


FAA INFORMATION EFFECTIVE 26 JANUARY 2023

Location

FAA Identifier: IA32
Lat/Long: 41-21-20.9400N 095-50-53.6500W
41-21.349000N 095-50.894167W
41.3558167,-95.8482361
(estimated)
Elevation: 1196 ft. / 365 m (estimated)
From city: 1 mile E of CRESCENT, IA
Time zone: UTC -6 (UTC -5 during Daylight Saving Time)
Zip code: 51526

Airport Operations

Airport use: Private use. Permission required prior to landing
Activation date: 07/2016
Control tower: no
ARTCC: MINNEAPOLIS CENTER
FSS: FORT DODGE FLIGHT SERVICE STATION
Attendance: 
Segmented circle: no

Airport Communications

WX ASOS at OMA (4 nm SW): PHONE 402-271-7515
WX AWOS-3 at CBF (7 nm SE): 126.575 (712-323-1542)
WX AWOS-3 at BTA (12 nm W): 120.225 (402-426-0448)
WX AWOS-3 at MLE (15 nm SW): 118.25 (402-895-6778)

Nearby radio navigation aids

VOR radial/distance  VOR name  Freq  Var
OVRr328/12.4OMAHA VORTAC116.3008E
SCBr107/38.1SCRIBNER VOR/DME111.0006E

 
NDB name  Hdg/Dist  Freq  Var  ID
PLATTSMOUTH002/24.932905EPMV .--. -- ...-
WAHOO072/34.540006EAHQ .- .... --.-

Airport Services

Runway Information

Runway 17/35

Dimensions: 1700 x 50 ft. / 518 x 15 m
Surface: turf, in good condition
RUNWAY 17  RUNWAY 35
Latitude: 41-21.487167N41-21.210833N
Longitude: 095-50.924333W095-50.864167W
Elevation: 1073.0 ft.1196.0 ft.
Traffic pattern: leftright

Airport Ownership and Management from official FAA records

Ownership: Privately-owned
Owner: DANIEL KELLEY
17751 BADGER AVE
CRESCENT, IA 51526
Phone 713-703-8478
Manager: DANIEL KELLEY
17751 BADGER AVE
CRESCENT, IA 51526
Phone 713-703-8478

Airport Operational Statistics

Aircraft based on the field: 1
Single engine airplanes: 1
    

Additional Remarks

FOR CD CTC OMAHA APCH AT 402-682-4395.

Instrument Procedures

There are no published instrument procedures at IA32.

Some nearby airports with instrument procedures:

KOMA - Eppley Airfield (4 nm SW)
KCBF - Council Bluffs Municipal Airport (7 nm SE)
KBTA - Blair Executive Airport (12 nm W)
KOFF - Offutt Air Force Base (14 nm S)
KMLE - Millard Airport (15 nm SW)
 
Loc | Ops | Rwys | IFR | FBO | Links
Com | Nav | Svcs | Stats | Notes
Aerial photo
No photo
 
Airport distance calculator
Flying to Kelley Airport? Find the distance to fly.

From to IA32

Sunrise and sunset
Times for 31-Jan-2023
 Local
(UTC-6)
 Zulu
(UTC)
Morning civil twilight07:0713:07
Sunrise07:3713:37
Sunset17:3723:37
Evening civil twilight18:0600:06

Current date and time
Zulu (UTC)  31-Jan-2023 17:17:27
Local (UTC-6)  31-Jan-2023 11:17:27
 
METAR
KOMA 
3nm SW 
311652Z 21007KT 10SM FEW150 M08/M16 A3040 RMK AO2 SLP315 T10831156
KCBF 
6nm SE 
311655Z AUTO 22010KT 10SM CLR M09/M17 A3036 RMK AO2
KBTA 
12nm W 
311655Z AUTO 21013KT 10SM CLR M10/M16 A3036 RMK AO2 T11021157
KOFF 
15nm S 
311655Z AUTO 20012KT 10SM CLR M08/M16 A3041 RMK AO2 SLP325 T10761163 PWINO PNO FZRANO TSNO $
KMLE 
15nm SW 
311655Z AUTO 23007KT 10SM CLR M08/M16 A3040 RMK AO2 T10831162
TAF
KOMA 
3nm SW 
311120Z 3112/0112 18008KT P6SM BKN100 FM311600 21010KT P6SM FEW250 FM010000 18007KT P6SM SKC
KOFF 
15nm S 
311000Z 3110/0116 23009KT 9999 BKN110 QNH3035INS BECMG 3119/3120 23009KT 9999 FEW110 QNH3025INS TXM04/3122Z TNM14/3112Z
NOTAMs
Click for the latest NOTAMs
NOTAMs are issued by the DoD/FAA and will open in a separate window not controlled by AirNav.

 

 
 

Would you like to see your business listed on this page?

 If your business provides an interesting product or service to pilots, flight crews, aircraft, or users of the Kelley Airport, you should consider listing it here.  To start the listing process, click on the button below
 
Add a business
 

Other Pages about Kelley Airport

Update a link
 
Copyright © AirNav, LLC. All rights reserved. Privacy Policy  Contact